createdAt,value
2023-01-19T00:01:40.724Z,31.74
2023-01-19T00:04:07.086Z,31.83
2023-01-19T00:06:33.488Z,31.86
2023-01-19T00:11:46.079Z,31.67
2023-01-19T00:14:13.674Z,31.80
2023-01-19T00:16:39.961Z,31.65
2023-01-19T00:19:06.291Z,31.56
2023-01-19T00:21:32.666Z,31.72
2023-01-19T00:23:59.153Z,31.77
2023-01-19T00:26:25.592Z,31.74
2023-01-19T00:28:51.924Z,31.63
2023-01-19T00:31:19.635Z,31.63
2023-01-19T00:33:46.178Z,31.79
2023-01-19T00:36:12.580Z,31.54
2023-01-19T00:41:40.018Z,31.72
2023-01-19T00:44:06.661Z,31.58
2023-01-19T00:46:34.434Z,31.57
2023-01-19T00:49:00.778Z,31.69
2023-01-19T00:51:27.156Z,31.68
2023-01-19T00:53:53.504Z,31.51
2023-01-19T00:56:19.877Z,31.62
2023-01-19T00:58:46.359Z,31.69
2023-01-19T01:01:12.833Z,31.61
2023-01-19T01:06:15.650Z,31.63
2023-01-19T01:08:42.028Z,31.68
2023-01-19T01:11:08.386Z,31.71
2023-01-19T01:13:34.812Z,31.59
2023-01-19T01:16:01.373Z,31.71
2023-01-19T01:18:27.762Z,31.64
2023-01-19T01:21:00.320Z,31.79
2023-01-19T01:23:27.973Z,31.73
2023-01-19T01:25:54.323Z,31.78
2023-01-19T01:28:20.677Z,31.88
2023-01-19T01:30:47.115Z,31.87
2023-01-19T01:33:13.497Z,31.89
2023-01-19T01:35:39.806Z,31.67
2023-01-19T01:38:06.211Z,31.80
2023-01-19T01:40:33.831Z,31.89
2023-01-19T01:43:00.430Z,31.66
2023-01-19T01:45:30.056Z,32.01
2023-01-19T01:47:58.551Z,31.47
2023-01-19T01:50:28.322Z,31.36
2023-01-19T01:53:07.270Z,31.36
2023-01-19T01:55:37.865Z,31.25
2023-01-19T01:58:05.840Z,31.25
2023-01-19T02:00:32.228Z,31.27
2023-01-19T02:02:59.210Z,31.32
2023-01-19T02:05:26.811Z,31.10
2023-01-19T02:07:55.789Z,31.21
2023-01-19T02:10:22.287Z,31.13
2023-01-19T02:12:50.522Z,31.25
2023-01-19T02:15:17.477Z,31.21
2023-01-19T02:17:44.197Z,31.17
2023-01-19T02:20:11.066Z,31.16
2023-01-19T02:22:42.484Z,31.05
2023-01-19T02:25:10.350Z,30.91
2023-01-19T02:27:36.729Z,30.89
2023-01-19T02:30:03.323Z,30.95
2023-01-19T02:32:29.860Z,30.94
2023-01-19T02:34:56.356Z,30.96
2023-01-19T02:37:22.815Z,30.81
2023-01-19T02:39:51.254Z,31.07
2023-01-19T02:42:20.755Z,30.72
2023-01-19T02:44:49.015Z,30.90
2023-01-19T02:47:15.952Z,30.84
2023-01-19T02:49:42.821Z,30.85
2023-01-19T02:52:14.174Z,30.90
2023-01-19T02:54:55.499Z,30.87
2023-01-19T02:57:27.482Z,30.75
2023-01-19T02:59:58.426Z,30.72
2023-01-19T03:02:30.079Z,30.77
2023-01-19T03:04:59.460Z,30.64
2023-01-19T03:07:34.464Z,30.73
2023-01-19T03:10:04.005Z,30.54
2023-01-19T03:12:36.479Z,30.50
2023-01-19T03:15:08.483Z,30.59
2023-01-19T03:17:35.682Z,30.56
2023-01-19T03:20:03.437Z,30.63
2023-01-19T03:22:29.836Z,30.46
2023-01-19T03:24:59.013Z,30.58
2023-01-19T03:27:26.171Z,30.63
2023-01-19T03:29:56.364Z,30.65
2023-01-19T03:32:25.925Z,30.44
2023-01-19T03:34:54.020Z,30.38
2023-01-19T03:37:21.402Z,30.40
2023-01-19T03:39:47.808Z,30.56
2023-01-19T03:42:16.201Z,30.36
2023-01-19T03:44:43.681Z,30.45
2023-01-19T03:47:13.260Z,30.24
2023-01-19T03:49:41.392Z,30.28
2023-01-19T03:52:07.889Z,30.24
2023-01-19T03:54:34.288Z,30.37
2023-01-19T03:57:00.616Z,30.25
2023-01-19T03:59:27.078Z,30.30
2023-01-19T04:01:53.569Z,30.25
2023-01-19T04:04:21.396Z,30.26
2023-01-19T04:06:47.715Z,30.24
2023-01-19T04:09:14.078Z,30.16
2023-01-19T04:11:40.448Z,30.17
2023-01-19T04:14:18.894Z,30.19
2023-01-19T04:16:45.216Z,30.23
2023-01-19T04:19:11.637Z,30.18
2023-01-19T04:21:39.371Z,30.20
2023-01-19T04:24:06.089Z,30.09
2023-01-19T04:26:32.458Z,30.04
2023-01-19T04:31:54.227Z,30.12
2023-01-19T04:34:20.677Z,30.09
2023-01-19T04:36:48.338Z,30.04
2023-01-19T04:39:14.944Z,30.05
2023-01-19T04:41:41.300Z,29.98
2023-01-19T04:44:07.661Z,30.12
2023-01-19T04:46:34.085Z,30.07
2023-01-19T04:49:00.490Z,30.03
2023-01-19T04:51:26.847Z,30.08
2023-01-19T04:53:54.577Z,29.98
2023-01-19T04:56:21.000Z,29.96
2023-01-19T04:58:47.348Z,29.93
2023-01-19T05:04:08.263Z,29.91
2023-01-19T05:06:34.739Z,30.06
2023-01-19T05:09:02.710Z,30.16
2023-01-19T05:11:28.997Z,29.96
2023-01-19T05:13:55.325Z,29.97
2023-01-19T05:16:21.737Z,30.07
2023-01-19T05:18:48.073Z,29.91
2023-01-19T05:21:14.426Z,30.05
2023-01-19T05:23:40.844Z,30.00
2023-01-19T05:28:46.270Z,29.81
2023-01-19T05:31:12.757Z,29.74
2023-01-19T05:33:39.161Z,29.92
2023-01-19T05:36:05.647Z,29.99
2023-01-19T05:38:36.011Z,30.03
2023-01-19T05:41:02.668Z,29.77
2023-01-19T05:43:28.982Z,29.90
2023-01-19T05:45:56.606Z,29.83
2023-01-19T05:51:26.795Z,29.85
2023-01-19T05:53:53.589Z,30.18
2023-01-19T06:01:34.300Z,34.10
2023-01-19T06:04:00.738Z,34.02
2023-01-19T06:06:27.075Z,33.70
2023-01-19T06:08:53.428Z,33.49
2023-01-19T06:11:19.766Z,33.49
2023-01-19T06:13:46.099Z,33.23
2023-01-19T06:16:12.465Z,33.83
2023-01-19T06:18:40.180Z,33.81
2023-01-19T06:21:07.256Z,35.48
2023-01-19T06:23:34.779Z,34.98
2023-01-19T06:26:01.479Z,34.52
2023-01-19T06:28:28.022Z,34.81
2023-01-19T06:30:55.122Z,33.70
2023-01-19T06:33:22.258Z,32.99
2023-01-19T06:35:50.551Z,32.71
2023-01-19T06:38:17.138Z,32.71
2023-01-19T06:40:43.479Z,32.34
2023-01-19T06:43:09.874Z,32.36
2023-01-19T06:45:36.573Z,32.11
2023-01-19T06:48:03.010Z,32.16
2023-01-19T06:50:29.554Z,31.82
2023-01-19T06:52:57.261Z,31.96
2023-01-19T06:55:23.648Z,31.69
2023-01-19T06:57:57.136Z,31.66
2023-01-19T07:00:23.647Z,31.68
2023-01-19T07:02:50.062Z,31.57
2023-01-19T07:05:16.735Z,31.50
2023-01-19T07:07:43.069Z,31.43
2023-01-19T07:10:11.139Z,31.44
2023-01-19T07:12:37.818Z,31.40
2023-01-19T07:17:35.937Z,31.54
2023-01-19T07:20:02.322Z,31.24
2023-01-19T07:22:28.693Z,31.37
2023-01-19T07:24:55.035Z,31.30
2023-01-19T07:27:22.762Z,31.36
2023-01-19T07:29:49.204Z,31.10
2023-01-19T07:32:15.645Z,31.00
2023-01-19T07:34:42.144Z,31.09
2023-01-19T07:37:08.784Z,31.16
2023-01-19T07:39:35.214Z,31.00
2023-01-19T07:42:01.574Z,31.06
2023-01-19T07:44:29.304Z,30.93
2023-01-19T07:46:55.714Z,30.85
2023-01-19T07:49:22.388Z,30.89
2023-01-19T07:51:48.895Z,30.91
2023-01-19T07:54:15.257Z,31.00
2023-01-19T07:56:41.666Z,30.89
2023-01-19T07:59:09.129Z,30.83
2023-01-19T08:01:36.913Z,30.73
2023-01-19T08:04:03.373Z,30.68
2023-01-19T08:06:32.461Z,30.65
2023-01-19T08:11:39.195Z,30.77
2023-01-19T08:14:07.842Z,30.59
2023-01-19T08:16:34.478Z,30.63
2023-01-19T08:19:02.160Z,30.76
2023-01-19T08:21:28.556Z,30.51
2023-01-19T08:23:55.296Z,30.38
2023-01-19T08:26:25.712Z,30.62
2023-01-19T08:28:52.118Z,30.59
2023-01-19T08:31:21.164Z,30.52
2023-01-19T08:33:48.891Z,30.55
2023-01-19T08:36:16.630Z,30.26
2023-01-19T08:38:44.227Z,30.39
2023-01-19T08:41:11.073Z,30.33
2023-01-19T08:43:37.424Z,30.31
2023-01-19T08:46:04.611Z,30.21
2023-01-19T08:48:31.392Z,30.10
2023-01-19T08:53:58.040Z,30.11
2023-01-19T09:01:36.201Z,30.17
2023-01-19T09:06:52.814Z,29.97
2023-01-19T09:11:57.904Z,30.04
2023-01-19T09:17:14.723Z,30.00
2023-01-19T09:19:58.058Z,30.12
2023-01-19T09:22:25.066Z,30.01
2023-01-19T09:24:51.747Z,30.10
2023-01-19T09:27:19.825Z,30.00
2023-01-19T09:29:46.413Z,29.97
2023-01-19T09:32:12.912Z,30.20
2023-01-19T09:34:39.279Z,29.98
2023-01-19T09:37:05.628Z,30.04
2023-01-19T09:39:32.158Z,30.14
2023-01-19T09:42:05.386Z,30.30
2023-01-19T09:44:34.241Z,29.97
2023-01-19T09:47:01.789Z,30.08
2023-01-19T09:49:31.518Z,30.03
2023-01-19T09:54:41.140Z,30.06
2023-01-19T09:57:09.733Z,29.96
2023-01-19T09:59:37.633Z,29.90
2023-01-19T10:02:07.291Z,29.96
2023-01-19T10:04:36.336Z,29.90
2023-01-19T10:07:08.678Z,29.75
2023-01-19T10:09:40.725Z,29.86
2023-01-19T10:12:11.510Z,29.92
2023-01-19T10:14:41.888Z,29.73
2023-01-19T10:17:16.173Z,29.95
2023-01-19T10:22:42.085Z,29.79
2023-01-19T10:25:15.562Z,29.84
2023-01-19T10:27:41.919Z,29.94
2023-01-19T10:30:15.096Z,29.91
2023-01-19T10:32:41.655Z,30.01
2023-01-19T10:35:13.976Z,29.87
2023-01-19T10:37:40.538Z,29.96
2023-01-19T10:40:17.392Z,29.90
2023-01-19T10:42:43.766Z,29.89
2023-01-19T10:48:15.181Z,29.96
2023-01-19T10:50:41.938Z,29.96
2023-01-19T10:53:19.366Z,30.05
2023-01-19T10:55:47.973Z,29.92
2023-01-19T10:58:26.930Z,29.96
2023-01-19T11:00:53.496Z,29.85
2023-01-19T11:03:23.579Z,29.83
2023-01-19T11:05:49.956Z,29.83
2023-01-19T11:08:27.667Z,29.88
2023-01-19T11:10:56.342Z,29.86
2023-01-19T11:13:22.784Z,29.91
2023-01-19T11:15:53.499Z,29.93
2023-01-19T11:18:27.312Z,30.00
2023-01-19T11:23:32.602Z,29.89
2023-01-19T11:28:37.135Z,29.96
2023-01-19T11:31:16.414Z,30.12
2023-01-19T11:33:52.166Z,29.99
2023-01-19T11:36:19.794Z,30.05
2023-01-19T11:38:47.161Z,30.02
2023-01-19T11:41:17.897Z,30.06
2023-01-19T11:43:49.391Z,30.09
2023-01-19T11:46:16.813Z,30.12
2023-01-19T11:48:46.577Z,30.07
2023-01-19T11:51:15.605Z,30.26
2023-01-19T11:53:43.336Z,30.13
2023-01-19T11:56:10.778Z,30.13
2023-01-19T11:58:38.496Z,30.41
2023-01-19T12:01:09.191Z,30.15
2023-01-19T12:03:38.997Z,30.34
2023-01-19T12:06:09.817Z,30.23
2023-01-19T12:08:37.255Z,30.36
2023-01-19T12:11:04.735Z,30.30
2023-01-19T12:13:32.274Z,30.44
2023-01-19T12:16:00.874Z,30.46
2023-01-19T12:18:29.775Z,30.33
2023-01-19T12:20:56.387Z,30.42
2023-01-19T12:23:33.685Z,30.53
2023-01-19T12:26:04.518Z,30.53
2023-01-19T12:28:32.307Z,30.63
2023-01-19T12:30:59.497Z,30.54
2023-01-19T12:33:35.213Z,30.50
2023-01-19T12:36:02.830Z,30.69
2023-01-19T12:38:36.270Z,30.78
2023-01-19T12:41:15.702Z,30.65
2023-01-19T12:43:42.132Z,30.77
2023-01-19T12:46:19.123Z,30.71
2023-01-19T12:48:45.606Z,30.66
2023-01-19T12:51:21.752Z,30.78
2023-01-19T12:53:51.995Z,30.75
2023-01-19T12:56:18.426Z,31.75
2023-01-19T12:58:47.684Z,32.06
2023-01-19T13:01:15.445Z,31.47
2023-01-19T13:03:43.525Z,31.22
2023-01-19T13:08:52.472Z,31.29
2023-01-19T13:11:20.584Z,31.13
2023-01-19T13:13:56.911Z,31.15
2023-01-19T13:16:33.178Z,31.22
2023-01-19T13:19:01.266Z,31.37
2023-01-19T13:24:19.841Z,31.37
2023-01-19T13:26:54.671Z,31.14
2023-01-19T13:29:26.036Z,31.25
2023-01-19T13:31:52.805Z,31.20
2023-01-19T13:34:20.964Z,31.20
2023-01-19T13:39:54.087Z,31.18
2023-01-19T13:42:25.423Z,31.28
2023-01-19T13:44:52.864Z,31.28
2023-01-19T13:47:21.686Z,31.29
2023-01-19T13:49:51.083Z,31.23
2023-01-19T13:52:20.759Z,31.40
2023-01-19T13:54:47.891Z,31.36
2023-01-19T13:57:24.112Z,31.13
2023-01-19T14:00:02.751Z,31.28
2023-01-19T14:02:29.323Z,31.19
2023-01-19T14:04:55.785Z,31.17
2023-01-19T14:07:22.255Z,31.40
2023-01-19T14:12:58.564Z,31.15
2023-01-19T14:15:27.403Z,31.25
2023-01-19T14:18:03.698Z,31.33
2023-01-19T14:20:30.665Z,31.45
2023-01-19T14:22:57.052Z,31.30
2023-01-19T14:25:27.957Z,31.49
2023-01-19T14:28:09.198Z,31.42
2023-01-19T14:30:36.891Z,31.40
2023-01-19T14:33:03.399Z,31.49
2023-01-19T14:35:29.879Z,31.31
2023-01-19T14:37:56.527Z,31.52
2023-01-19T14:43:18.923Z,31.49
2023-01-19T14:45:47.150Z,31.50
2023-01-19T14:48:17.975Z,31.49
2023-01-19T14:51:01.367Z,31.46
2023-01-19T14:53:28.711Z,31.46
2023-01-19T14:58:38.638Z,31.41
2023-01-19T15:01:06.516Z,31.37
2023-01-19T15:03:48.176Z,31.34
2023-01-19T15:06:16.251Z,31.38
2023-01-19T15:08:43.855Z,31.50
2023-01-19T15:11:11.507Z,31.40
2023-01-19T15:13:38.592Z,31.48
2023-01-19T15:16:06.750Z,31.41
2023-01-19T15:18:33.091Z,31.43
2023-01-19T15:23:52.339Z,31.42
2023-01-19T15:28:48.489Z,31.39
2023-01-19T15:31:16.925Z,31.41
2023-01-19T15:33:43.813Z,31.45
2023-01-19T15:36:12.137Z,31.54
2023-01-19T15:38:38.533Z,31.27
2023-01-19T15:41:09.426Z,31.38
2023-01-19T15:43:35.835Z,31.34
2023-01-19T15:46:02.337Z,31.40
2023-01-19T15:51:05.422Z,31.31
2023-01-19T15:53:31.811Z,31.39
2023-01-19T15:55:58.162Z,31.33
2023-01-19T15:58:24.918Z,31.50
2023-01-19T16:00:53.332Z,31.34
2023-01-19T16:03:19.718Z,31.30
2023-01-19T16:05:46.125Z,31.45
2023-01-19T16:08:13.770Z,31.50
2023-01-19T16:10:40.448Z,31.33
2023-01-19T16:13:07.245Z,31.50
2023-01-19T16:15:34.561Z,31.54
2023-01-19T16:18:01.267Z,31.33
2023-01-19T16:20:27.698Z,31.38
2023-01-19T16:22:56.519Z,31.48
2023-01-19T16:25:26.212Z,31.36
2023-01-19T16:27:52.550Z,31.31
2023-01-19T16:30:18.959Z,31.39
2023-01-19T16:32:45.798Z,31.21
2023-01-19T16:35:12.401Z,31.39
2023-01-19T16:37:38.725Z,31.46
2023-01-19T16:40:05.532Z,31.48
2023-01-19T16:42:33.188Z,31.34
2023-01-19T16:44:59.609Z,31.43
2023-01-19T16:47:26.001Z,31.29
2023-01-19T16:49:52.609Z,31.26
2023-01-19T16:52:19.101Z,31.21
2023-01-19T16:54:45.594Z,31.21
2023-01-19T16:59:43.087Z,31.08
2023-01-19T17:02:15.377Z,31.21
2023-01-19T17:04:41.795Z,31.15
2023-01-19T17:07:08.169Z,31.20
2023-01-19T17:09:34.567Z,31.19
2023-01-19T17:12:01.068Z,31.19
2023-01-19T17:14:27.461Z,31.25
2023-01-19T17:16:55.159Z,31.30
2023-01-19T17:19:21.967Z,31.17
2023-01-19T17:24:23.684Z,31.10
2023-01-19T17:26:50.022Z,31.14
2023-01-19T17:29:16.685Z,31.14
2023-01-19T17:31:43.303Z,31.16
2023-01-19T17:34:11.138Z,31.20
2023-01-19T17:36:37.917Z,31.26
2023-01-19T17:39:05.625Z,31.37
2023-01-19T17:41:33.868Z,31.16
2023-01-19T17:44:00.966Z,31.30
2023-01-19T17:46:28.553Z,31.25
2023-01-19T17:48:55.564Z,31.37
2023-01-19T17:51:23.625Z,31.42
2023-01-19T17:53:50.941Z,31.44
2023-01-19T17:56:18.078Z,31.24
2023-01-19T17:58:44.639Z,31.25
2023-01-19T18:01:12.007Z,31.45
2023-01-19T18:03:38.766Z,31.42
2023-01-19T18:06:05.334Z,31.45
2023-01-19T18:08:33.216Z,31.34
2023-01-19T18:13:51.440Z,31.53
2023-01-19T18:16:19.478Z,31.38
2023-01-19T18:18:45.801Z,31.36
2023-01-19T18:21:13.287Z,31.45
2023-01-19T18:23:40.982Z,31.45
2023-01-19T18:26:08.769Z,31.67
2023-01-19T18:28:35.824Z,31.64
2023-01-19T18:31:02.464Z,31.53
2023-01-19T18:33:28.898Z,31.39
2023-01-19T18:35:55.334Z,31.49
2023-01-19T18:38:21.722Z,31.53
2023-01-19T18:40:49.394Z,31.61
2023-01-19T18:43:15.727Z,31.69
2023-01-19T18:45:42.142Z,31.62
2023-01-19T18:48:08.652Z,31.61
2023-01-19T18:50:34.933Z,31.49
2023-01-19T18:53:01.309Z,31.59
2023-01-19T18:55:27.603Z,31.66
2023-01-19T18:57:55.225Z,31.68
2023-01-19T19:00:22.091Z,31.67
2023-01-19T19:02:48.423Z,31.66
2023-01-19T19:05:14.861Z,31.68
2023-01-19T19:07:41.249Z,31.53
2023-01-19T19:10:08.237Z,31.60
2023-01-19T19:12:34.597Z,31.53
2023-01-19T19:15:02.254Z,31.56
2023-01-19T19:17:28.589Z,31.61
2023-01-19T19:19:54.902Z,31.58
2023-01-19T19:22:21.274Z,31.75
2023-01-19T19:24:47.643Z,31.47
2023-01-19T19:27:14.236Z,31.50
2023-01-19T19:29:40.855Z,31.51
2023-01-19T19:32:08.697Z,31.50
2023-01-19T19:34:35.074Z,31.49
2023-01-19T19:37:01.575Z,31.57
2023-01-19T19:39:28.077Z,31.58
2023-01-19T19:41:54.403Z,31.53
2023-01-19T19:44:20.710Z,31.53
2023-01-19T19:46:47.210Z,31.59
2023-01-19T19:49:14.873Z,31.63
2023-01-19T19:51:41.231Z,31.50
2023-01-19T19:54:07.569Z,31.49
2023-01-19T19:56:33.906Z,31.53
2023-01-19T19:59:00.391Z,31.42
2023-01-19T20:01:29.965Z,31.51
2023-01-19T20:03:58.032Z,31.45
2023-01-19T20:06:26.784Z,31.51
2023-01-19T20:11:57.800Z,31.38
2023-01-19T20:14:24.141Z,31.54
2023-01-19T20:16:50.482Z,31.52
2023-01-19T20:19:16.834Z,31.41
2023-01-19T20:21:44.500Z,31.34
2023-01-19T20:24:35.387Z,31.46
2023-01-19T20:27:01.737Z,31.37
2023-01-19T20:29:28.048Z,31.36
2023-01-19T20:31:55.436Z,31.37
2023-01-19T20:34:23.767Z,31.37
2023-01-19T20:36:51.468Z,31.22
2023-01-19T20:39:18.268Z,31.40
2023-01-19T20:41:44.628Z,31.41
2023-01-19T20:44:11.739Z,31.35
2023-01-19T20:46:38.183Z,31.41
2023-01-19T20:51:32.416Z,31.33
2023-01-19T20:54:00.121Z,31.40
2023-01-19T20:56:26.554Z,31.35
2023-01-19T21:01:22.184Z,31.21
2023-01-19T21:03:49.126Z,31.33
2023-01-19T21:06:15.876Z,31.24
2023-01-19T21:08:42.573Z,31.27
2023-01-19T21:11:10.618Z,31.26
2023-01-19T21:13:37.092Z,31.34
2023-01-19T21:16:03.551Z,31.30
2023-01-19T21:18:29.936Z,31.33
2023-01-19T21:20:56.688Z,31.39
2023-01-19T21:23:23.214Z,31.21
2023-01-19T21:25:49.696Z,31.30
2023-01-19T21:28:17.548Z,31.25
2023-01-19T21:30:44.105Z,31.22
2023-01-19T21:33:10.536Z,31.30
2023-01-19T21:35:36.911Z,31.34
2023-01-19T21:41:04.944Z,31.25
2023-01-19T21:43:32.666Z,31.27
2023-01-19T21:46:08.112Z,31.15
2023-01-19T21:48:34.655Z,31.27
2023-01-19T21:51:01.318Z,31.22
2023-01-19T21:53:27.750Z,31.21
2023-01-19T21:58:21.747Z,31.19
2023-01-19T22:00:49.765Z,31.23
2023-01-19T22:03:16.609Z,31.18
2023-01-19T22:05:42.969Z,31.29
2023-01-19T22:08:09.323Z,31.17
2023-01-19T22:10:36.025Z,31.07
2023-01-19T22:13:02.665Z,31.00
2023-01-19T22:15:29.131Z,31.15
2023-01-19T22:17:56.810Z,30.99
2023-01-19T22:23:21.951Z,31.04
2023-01-19T22:25:48.370Z,31.04
2023-01-19T22:31:00.632Z,30.92
2023-01-19T22:33:29.170Z,30.97
2023-01-19T22:35:55.484Z,30.93
2023-01-19T22:38:21.931Z,31.10
2023-01-19T22:43:23.557Z,31.15
2023-01-19T22:45:49.947Z,30.91
2023-01-19T22:48:16.299Z,30.96
2023-01-19T22:50:43.981Z,30.88
2023-01-19T22:55:43.945Z,30.82
2023-01-19T22:58:10.297Z,30.96
2023-01-19T23:00:36.646Z,30.99
2023-01-19T23:03:03.058Z,30.91
2023-01-19T23:05:29.578Z,30.81
2023-01-19T23:07:57.265Z,30.92
2023-01-19T23:10:23.620Z,30.96
2023-01-19T23:12:49.950Z,30.80
2023-01-19T23:15:16.384Z,30.83
2023-01-19T23:20:40.942Z,30.80
2023-01-19T23:31:33.712Z,30.84
2023-01-19T23:36:58.108Z,31.03
2023-01-19T23:39:24.427Z,30.75
2023-01-19T23:41:50.810Z,30.89
2023-01-19T23:44:17.440Z,30.90
2023-01-19T23:46:45.544Z,30.77
2023-01-19T23:49:12.328Z,30.74
2023-01-19T23:51:39.439Z,30.79
2023-01-19T23:54:05.798Z,30.86
2023-01-19T23:56:33.013Z,30.83
2023-01-19T23:59:00.647Z,30.87
